N5SNT-2 Weather Reports


Display with metric or nautical units.
time (UTC)temp
F
wind
direction
speed
MPH
gust
MPH
rain 1hr
in
rain 24hr
in
rain mn
in
humidity
%
barometer
mb
20240518230738 95 141 5.0 9.0 0.00 0.00 0.00 38 1010.1
20240518225717 95 158 3.0 6.0 0.00 0.00 0.00 37 1010.0
20240518224729 95 160 3.0 8.0 0.00 0.00 0.00 37 1010.0
20240518223742 95 140 1.0 5.0 0.00 0.00 0.00 37 1010.3
20240518222722 97 175 5.0 8.0 0.00 0.00 0.00 39 1010.3
20240518221733 95 168 4.0 7.0 0.00 0.00 0.00 39 1010.3
20240518220744 95 157 3.0 5.0 0.00 0.00 0.00 39 1010.5
20240518215742 96 175 6.0 9.0 0.00 0.00 0.00 40 1010.7
20240518214752 96 0.0 4.0 0.00 0.00 0.00 39 1010.5
20240518213744 95 211 2.0 4.0 0.00 0.00 0.00 42 1010.6
20240518212726 95 183 5.0 7.0 0.00 0.00 0.00 42 1010.6
20240518211755 95 143 4.0 5.0 0.00 0.00 0.00 43 1010.6
20240518210748 95 209 2.0 6.0 0.00 0.00 0.00 43 1010.8
20240518205726 95 140 3.0 4.0 0.00 0.00 0.00 43 1010.7
20240518204756 94 125 2.0 7.0 0.00 0.00 0.00 42 1010.8
20240518203741 95 152 2.0 3.0 0.00 0.00 0.00 46 1011.2
20240518202728 94 188 5.0 7.0 0.00 0.00 0.00 46 1011.2
20240518201739 94 146 3.0 7.0 0.00 0.00 0.00 46 1011.4
20240518200721 94 221 6.0 7.0 0.00 0.00 0.00 46 1011.3
20240518195731 93 124 1.0 7.0 0.00 0.00 0.00 47 1011.6
20240518194740 93 249 4.0 11.0 0.00 0.00 0.00 50 1011.8
20240518193720 92 278 3.0 7.0 0.00 0.00 0.00 49 1011.8
20240518192751 91 241 2.0 9.0 0.00 0.00 0.00 52 1012.2
20240518191803 92 171 5.0 9.0 0.00 0.00 0.00 52 1012.1
20240518190743 91 250 4.0 8.0 0.00 0.00 0.00 54 1012.3
20240518185734 91 209 7.0 10.0 0.00 0.00 0.00 51 1012.8
20240518184745 91 225 3.0 5.0 0.00 0.00 0.00 55 1012.8
20240518183746 90 247 5.0 10.0 0.00 0.00 0.00 55 1012.8
20240518182736 89 226 6.0 9.0 0.00 0.00 0.00 56 1012.9
20240518181717 89 254 5.0 6.0 0.00 0.00 0.00 58 1012.7
20240518180728 88 239 4.0 10.0 0.00 0.00 0.00 60 1013.0
20240518175738 87 141 4.0 8.0 0.00 0.00 0.00 60 1013.2
20240518174719 87 194 4.0 10.0 0.00 0.00 0.00 61 1013.1
20240518173731 87 189 3.0 7.0 0.00 0.00 0.00 62 1013.3
20240518172800 86 254 4.0 7.0 0.00 0.00 0.00 63 1013.1
20240518171740 86 256 7.0 11.0 0.00 0.00 0.00 63 1013.2
20240518170731 85 254 5.0 9.0 0.00 0.00 0.00 65 1013.2
20240518165804 85 258 5.0 8.0 0.00 0.00 0.00 65 1013.3
20240518164802 84 249 7.0 9.0 0.00 0.00 0.00 68 1013.1
20240518163733 84 256 5.0 10.0 0.00 0.00 0.00 67 1013.3
20240518162744 83 239 6.0 11.0 0.00 0.00 0.00 67 1013.2
20240518161725 82 230 6.0 9.0 0.00 0.00 0.00 67 1013.2
20240518160735 82 241 4.0 7.0 0.00 0.00 0.00 67 1013.5
20240518155746 81 225 2.0 7.0 0.00 0.00 0.00 69 1013.3
20240518154726 81 250 5.0 6.0 0.00 0.00 0.00 70 1013.6
20240518153757 80 238 3.0 4.0 0.00 0.00 0.00 73 1013.4
20240518152719 79 238 4.0 7.0 0.00 0.00 0.00 75 1013.2
20240518151728 77 243 2.0 6.0 0.00 0.00 0.00 80 1013.4
20240518150741 76 216 2.0 5.0 0.00 0.00 0.00 80 1013.4
20240518145719 76 154 6.0 8.0 0.00 0.00 0.00 81 1013.5
20240518144730 75 178 2.0 4.0 0.00 0.00 0.00 85 1013.5
20240518143740 73 0.0 3.0 0.00 0.00 0.00 89 1013.5
20240518142721 71 163 2.0 3.0 0.00 0.00 0.00 99 1013.4
20240518141732 69 149 2.0 3.0 0.00 0.00 0.00 99 1013.5
20240518140746 68 158 1.0 3.0 0.00 0.00 0.00 99 1013.3
20240518135725 69 147 2.0 3.0 0.00 0.00 0.00 99 1013.6
20240518134733 68 95 2.0 4.0 0.00 0.00 0.00 99 1013.3
20240518133744 67 122 3.0 4.0 0.00 0.00 0.00 99 1013.3
20240518132724 67 0.0 2.0 0.00 0.00 0.00 99 1013.3
20240518131738 67 113 1.0 4.0 0.00 0.00 0.00 99 1013.2
20240518130717 67 82 2.0 2.0 0.00 0.00 0.00 99 1013.2
20240518125729 66 125 3.0 5.0 0.00 0.00 0.00 99 1013.1
20240518124739 66 119 3.0 4.0 0.00 0.00 0.00 99 1012.8
20240518123717 66 133 3.0 4.0 0.00 0.00 0.00 99 1012.7
20240518122829 66 144 4.0 5.0 0.00 0.00 0.00 99 1012.6
20240518121800 66 136 3.0 5.0 0.00 0.00 0.00 99 1012.7
20240518120722 66 121 4.0 5.0 0.00 0.00 0.00 99 1012.4
20240518115731 66 118 3.0 4.0 0.00 0.00 0.00 99 1012.5
20240518114742 66 125 4.0 5.0 0.00 0.00 0.00 99 1012.3
20240518113723 66 111 2.0 4.0 0.00 0.00 0.00 99 1012.3
20240518112733 66 114 3.0 4.0 0.00 0.00 0.00 99 1012.1
20240518111744 66 113 1.0 2.0 0.00 0.00 0.00 99 1012.0
20240518110724 66 103 1.0 2.0 0.00 0.00 0.00 99 1011.7
20240518105735 66 108 1.0 2.0 0.00 0.00 0.00 99 1012.0
20240518104746 66 65 1.0 2.0 0.00 0.00 0.00 99 1011.6
20240518103728 66 99 1.0 2.0 0.00 0.00 0.00 99 1011.6
20240518102737 66 112 2.0 2.0 0.00 0.00 0.00 99 1011.6
20240518101718 66 99 1.0 2.0 0.00 0.00 0.00 99 1011.5
20240518100728 66 81 2.0 2.0 0.00 0.00 0.00 99 1011.5
20240518095759 66 0.0 1.0 0.00 0.00 0.00 99 1011.4
20240518094719 66 0.0 1.0 0.00 0.00 0.00 99 1011.5
20240518093730 67 105 2.0 2.0 0.00 0.00 0.00 99 1011.3
20240518092741 67 0.0 1.0 0.00 0.00 0.00 99 1011.1
20240518091721 67 103 1.0 2.0 0.00 0.00 0.00 98 1011.2
20240518090733 67 102 1.0 2.0 0.00 0.00 0.00 98 1011.3
20240518085743 67 54 1.0 2.0 0.00 0.00 0.00 98 1011.2
20240518084723 68 188 1.0 2.0 0.00 0.00 0.00 98 1011.3
20240518083733 68 215 2.0 3.0 0.00 0.00 0.00 98 1011.1
20240518082745 68 0.0 1.0 0.00 0.00 0.00 97 1010.9
20240518081725 68 150 2.0 4.0 0.00 0.00 0.00 97 1010.8
20240518080738 69 176 2.0 3.0 0.00 0.00 0.00 97 1010.8
20240518075716 69 157 3.0 4.0 0.00 0.00 0.00 97 1010.7
20240518074727 69 179 4.0 7.0 0.00 0.00 0.00 97 1010.7
20240518073738 69 140 8.0 9.0 0.00 0.00 0.00 97 1010.5
20240518072719 69 136 3.0 4.0 0.00 0.00 0.00 97 1010.6
20240518071729 69 133 6.0 8.0 0.00 0.00 0.00 97 1010.4
20240518070740 69 126 4.0 12.0 0.00 0.00 0.00 96 1010.5
20240518065720 69 139 8.0 13.0 0.00 0.00 0.00 96 1010.0
20240518064730 69 138 4.0 7.0 0.00 0.00 0.00 95 1010.4
20240518063742 70 108 2.0 5.0 0.00 0.00 0.00 95 1010.6
20240518062724 70 166 3.0 6.0 0.00 0.00 0.00 94 1010.9
20240518061734 70 173 3.0 5.0 0.00 0.00 0.00 94 1010.9
20240518060804 70 152 4.0 5.0 0.00 0.00 0.00 93 1010.8
20240518055723 71 204 3.0 4.0 0.00 0.00 0.00 93 1011.2
20240518054814 71 169 1.0 2.0 0.00 0.00 0.00 93 1011.0
20240518053746 71 149 3.0 5.0 0.00 0.00 0.00 92 1011.0
20240518052748 71 166 2.0 2.0 0.00 0.00 0.00 92 1011.3
20240518051738 72 120 3.0 4.0 0.00 0.00 0.00 92 1011.2
20240518050717 72 138 1.0 2.0 0.00 0.00 0.00 92 1011.4
20240518045728 72 127 3.0 5.0 0.00 0.00 0.00 91 1011.2
20240518044740 72 139 2.0 3.0 0.00 0.00 0.00 91 1011.5
20240518043759 72 154 2.0 5.0 0.00 0.00 0.00 90 1011.6
20240518042731 73 133 3.0 4.0 0.00 0.00 0.00 90 1011.5
20240518041743 73 125 4.0 6.0 0.00 0.00 0.00 89 1011.1
20240518040722 73 127 4.0 6.0 0.00 0.00 0.00 89 1010.9
20240518035732 73 132 5.0 8.0 0.00 0.00 0.00 88 1010.9
20240518034743 74 122 4.0 8.0 0.00 0.00 0.00 87 1011.0
20240518033723 74 164 5.0 8.0 0.00 0.00 0.00 87 1010.6
20240518032756 74 136 4.0 9.0 0.00 0.00 0.00 84 1010.3
20240518031806 75 143 6.0 9.0 0.00 0.00 0.00 81 1009.9
20240518030727 77 164 7.0 10.0 0.00 0.00 0.00 75 1009.9
20240518025736 77 141 4.0 6.0 0.00 0.00 0.00 74 1009.7
20240518024719 77 110 1.0 2.0 0.00 0.00 0.00 73 1010.0
20240518023727 78 104 1.0 2.0 0.00 0.00 0.00 73 1009.9
20240518022740 78 129 2.0 4.0 0.00 0.00 0.00 72 1009.7
20240518021718 78 129 2.0 3.0 0.00 0.00 0.00 72 1009.4
20240518020730 79 126 2.0 4.0 0.00 0.00 0.00 71 1009.2
20240518015740 79 137 1.0 2.0 0.00 0.00 0.00 71 1009.0
20240518014720 79 126 2.0 3.0 0.00 0.00 0.00 71 1008.9
20240518013731 79 124 2.0 3.0 0.00 0.00 0.00 70 1008.9
20240518012802 80 0.0 1.0 0.00 0.00 0.00 70 1008.6
20240518011722 80 0.0 1.0 0.00 0.00 0.00 68 1008.4
20240518010753 81 132 2.0 3.0 0.00 0.00 0.00 65 1008.5
20240518005743 82 135 4.0 5.0 0.00 0.00 0.00 64 1008.9
20240518004723 83 119 3.0 6.0 0.00 0.00 0.00 63 1008.1
20240518003755 83 121 3.0 4.0 0.00 0.00 0.00 61 1007.9
20240518002745 84 109 1.0 3.0 0.00 0.00 0.00 61 1007.9
20240518001726 84 123 2.0 4.0 0.00 0.00 0.00 61 1007.9
20240518000738 84 111 1.0 6.0 0.00 0.00 0.00 61 1007.7
20240517235717 84 121 4.0 7.0 0.00 0.00 0.00 60 1007.8
20240517234727 85 144 5.0 9.0 0.00 0.00 0.00 59 1007.5
20240517233739 86 108 1.0 7.0 0.00 0.00 0.00 56 1007.5
20240517232759 87 118 3.0 5.0 0.00 0.00 0.00 54 1007.7
20240517231730 86 128 4.0 9.0 0.00 0.00 0.00 55 1007.7